Time;durP1;ratioP1;P1;durP2;ratioP2;P2;SDS_P1;SDS_P2;PMS_P1;PMS_P2;Temp;Humidity;BMP_temperature;BMP_pressure;BME280_temperature;BME280_humidity;BME280_pressure;Samples;Min_cycle;Max_cycle;Signal;HPM_P1;HPM_P2
2022/04/17 00:00:25;;;;;;;10.45;8.82;;;;;;;10.81;37.49;102858.50;5064932;28;20033;-71
2022/04/17 00:02:52;;;;;;;12.90;8.82;;;;;;;10.74;37.87;102856.13;5051803;28;20152;-71
2022/04/17 00:05:17;;;;;;;11.55;8.65;;;;;;;10.92;36.65;102850.19;5051922;28;20067;-71
2022/04/17 00:07:43;;;;;;;12.00;8.35;;;;;;;10.91;36.50;102854.66;5031682;28;20520;-72
2022/04/17 00:10:14;;;;;;;10.30;8.20;;;;;;;10.93;36.19;102859.03;5053857;28;20026;-71
2022/04/17 00:12:40;;;;;;;10.10;8.50;;;;;;;10.62;37.83;102852.03;5031400;28;20029;-72
2022/04/17 00:15:12;;;;;;;11.38;8.25;;;;;;;10.76;36.59;102849.78;5032366;28;20139;-71
2022/04/17 00:17:42;;;;;;;9.70;7.93;;;;;;;10.76;36.33;102846.28;5033207;28;20022;-71
2022/04/17 00:20:12;;;;;;;10.40;8.52;;;;;;;10.80;36.84;102850.59;5032355;28;20026;-72
2022/04/17 00:22:37;;;;;;;11.48;8.00;;;;;;;10.75;35.82;102850.72;5053271;28;20079;-72
2022/04/17 00:25:03;;;;;;;11.48;8.40;;;;;;;10.68;36.06;102851.84;5050702;28;20045;-71
2022/04/17 00:27:30;;;;;;;9.05;7.35;;;;;;;10.59;36.21;102850.34;5036912;28;20099;-71
2022/04/17 00:29:55;;;;;;;10.13;7.35;;;;;;;10.55;36.36;102854.00;5033509;28;20032;-71
2022/04/17 00:32:20;;;;;;;8.27;7.40;;;;;;;10.66;35.77;102849.22;5034087;28;20447;-71
2022/04/17 00:34:46;;;;;;;11.52;7.20;;;;;;;10.54;37.64;102852.28;5050607;28;20462;-71
2022/04/17 00:37:14;;;;;;;10.20;7.43;;;;;;;10.61;36.00;102858.25;5031725;28;20037;-71
2022/04/17 00:39:40;;;;;;;9.50;6.90;;;;;;;10.62;35.97;102852.03;5052393;28;20052;-72
2022/04/17 00:42:10;;;;;;;9.68;7.32;;;;;;;10.64;35.90;102850.19;5015168;28;20029;-71
2022/04/17 00:44:36;;;;;;;7.53;6.68;;;;;;;10.59;35.95;102850.34;5033710;28;20452;-71
2022/04/17 00:47:05;;;;;;;7.57;6.78;;;;;;;10.43;36.16;102838.41;5036405;28;20029;-71
2022/04/17 00:49:31;;;;;;;9.65;6.50;;;;;;;10.44;36.69;102834.81;5037015;28;20108;-71
2022/04/17 00:51:58;;;;;;;10.70;7.60;;;;;;;10.43;36.02;102843.75;5045905;28;20113;-71
2022/04/17 00:54:25;;;;;;;9.63;7.40;;;;;;;10.31;37.80;102852.09;5030971;28;20529;-72
2022/04/17 00:56:51;;;;;;;12.60;6.88;;;;;;;10.35;36.32;102845.75;5031395;28;20017;-72
2022/04/17 00:59:17;;;;;;;8.55;7.20;;;;;;;10.28;36.49;102836.22;5053126;28;20056;-71
2022/04/17 01:01:43;;;;;;;8.70;6.75;;;;;;;10.28;36.13;102842.41;5030848;28;20492;-71
2022/04/17 01:04:09;;;;;;;9.63;6.75;;;;;;;10.32;36.09;102840.53;5031070;28;20049;-71
2022/04/17 01:06:40;;;;;;;9.23;6.43;;;;;;;10.26;36.01;102838.88;5033067;28;20046;-72
2022/04/17 01:09:07;;;;;;;11.70;6.75;;;;;;;10.13;36.06;102824.22;5031957;28;20021;-71
2022/04/17 01:11:33;;;;;;;10.27;6.55;;;;;;;10.07;36.02;102822.63;5042643;28;20037;-72
2022/04/17 01:14:01;;;;;;;8.60;6.75;;;;;;;10.13;35.90;102840.19;5055705;28;20128;-72
2022/04/17 01:16:27;;;;;;;8.52;6.57;;;;;;;10.02;37.57;102835.16;5048242;28;20128;-72
2022/04/17 01:18:57;;;;;;;10.55;6.70;;;;;;;10.05;36.71;102836.88;5048070;28;20049;-71
2022/04/17 01:21:28;;;;;;;10.30;6.72;;;;;;;9.91;37.34;102835.50;5035672;28;20420;-71
2022/04/17 01:26:57;;;;;;;10.60;6.78;;;;;;;9.88;37.50;102845.31;5037941;28;20060;-72
2022/04/17 01:29:28;;;;;;;9.38;6.15;;;;;;;9.96;37.79;102846.84;5062999;28;20499;-71
2022/04/17 01:31:54;;;;;;;7.95;6.38;;;;;;;9.86;37.17;102842.72;5039880;28;20045;-71
2022/04/17 01:34:24;;;;;;;9.18;6.35;;;;;;;9.82;36.92;102849.00;5032302;28;20368;-72
2022/04/17 01:36:50;;;;;;;8.07;6.47;;;;;;;9.80;37.14;102844.69;5047778;28;20124;-71
2022/04/17 01:39:18;;;;;;;7.80;6.18;;;;;;;9.77;37.07;102846.50;5051926;28;20387;-72
2022/04/17 01:41:44;;;;;;;7.97;6.53;;;;;;;9.67;38.21;102849.44;5039842;28;20021;-72
2022/04/17 01:44:09;;;;;;;7.20;6.20;;;;;;;9.81;36.72;102846.41;5028698;28;20029;-72
2022/04/17 01:46:36;;;;;;;8.07;6.38;;;;;;;9.77;37.39;102842.97;5034417;28;20051;-72
2022/04/17 01:49:03;;;;;;;9.20;6.47;;;;;;;9.70;37.88;102836.06;5035492;28;20496;-71
2022/04/17 01:51:34;;;;;;;8.32;6.38;;;;;;;9.69;37.55;102847.63;5038537;28;20028;-71
2022/04/17 01:54:02;;;;;;;8.40;6.32;;;;;;;9.69;37.26;102840.50;5032657;28;20492;-71
2022/04/17 01:56:30;;;;;;;7.57;6.53;;;;;;;9.61;38.70;102841.63;5020583;28;20253;-71
2022/04/17 01:58:55;;;;;;;9.48;6.63;;;;;;;9.40;40.07;102841.28;5031247;28;20400;-71
2022/04/17 02:01:21;;;;;;;8.48;6.65;;;;;;;9.26;40.45;102844.28;5032240;28;20100;-71
2022/04/17 02:03:46;;;;;;;7.55;6.80;;;;;;;9.10;40.68;102842.94;5058247;28;20029;-71
2022/04/17 02:06:14;;;;;;;8.02;6.35;;;;;;;8.93;40.31;102839.81;5049221;28;20048;-72
2022/04/17 02:08:40;;;;;;;8.60;6.45;;;;;;;9.06;40.34;102846.59;5055815;28;20431;-71
2022/04/17 02:11:05;;;;;;;7.85;6.18;;;;;;;8.94;41.44;102841.56;5020431;28;20030;-71
2022/04/17 02:13:31;;;;;;;9.18;6.70;;;;;;;8.92;41.44;102836.31;5054350;28;20032;-72
2022/04/17 02:15:56;;;;;;;8.68;7.18;;;;;;;8.88;41.10;102834.63;5067212;28;20041;-71
2022/04/17 02:18:21;;;;;;;10.13;6.55;;;;;;;8.66;42.55;102831.59;5050119;28;20032;-71
2022/04/17 02:20:49;;;;;;;8.50;7.50;;;;;;;8.66;42.50;102831.59;5043211;28;20028;-72
2022/04/17 02:23:17;;;;;;;8.80;6.72;;;;;;;8.67;41.06;102828.03;5046087;28;20033;-72
2022/04/17 02:25:43;;;;;;;7.63;6.60;;;;;;;8.78;41.12;102827.78;5046607;28;20392;-71
2022/04/17 02:28:08;;;;;;;9.48;6.63;;;;;;;8.74;41.94;102820.81;5040137;28;20021;-72
2022/04/17 02:30:34;;;;;;;9.18;7.13;;;;;;;8.59;42.45;102817.63;5046160;28;20047;-71
2022/04/17 02:33:02;;;;;;;8.93;7.15;;;;;;;8.47;42.46;102824.97;5042982;28;20029;-71
2022/04/17 02:35:30;;;;;;;10.15;6.97;;;;;;;8.37;42.29;102830.44;5034444;28;20033;-71
2022/04/17 02:37:56;;;;;;;7.68;6.50;;;;;;;8.37;42.80;102827.78;5049360;28;20021;-71
2022/04/17 02:40:21;;;;;;;7.80;6.47;;;;;;;8.50;41.38;102822.25;5066924;28;20029;-71
2022/04/17 02:42:48;;;;;;;9.57;7.10;;;;;;;8.46;42.27;102818.78;5047991;28;20029;-71
2022/04/17 02:45:13;;;;;;;10.50;6.85;;;;;;;8.34;42.51;102809.31;5046454;28;20025;-71
2022/04/17 02:47:46;;;;;;;7.50;6.15;;;;;;;8.30;42.81;102820.88;5060426;28;20472;-71
2022/04/17 02:50:18;;;;;;;6.85;6.25;;;;;;;8.21;43.04;102818.44;5029772;28;20037;-72
2022/04/17 02:52:45;;;;;;;7.50;6.28;;;;;;;8.29;43.17;102823.56;5030736;28;20492;-71
2022/04/17 02:55:13;;;;;;;7.47;6.70;;;;;;;8.36;42.77;102823.41;5037423;28;20025;-72
2022/04/17 02:57:39;;;;;;;8.88;6.75;;;;;;;8.23;43.26;102819.25;5042437;28;20025;-71
2022/04/17 03:00:06;;;;;;;9.90;7.15;;;;;;;8.12;43.55;102816.00;5032808;28;20032;-72
2022/04/17 03:05:39;;;;;;;8.40;7.10;;;;;;;8.03;44.19;102816.16;5043537;28;21567;-72
2022/04/17 03:08:18;;;;;;;8.55;6.95;;;;;;;8.05;44.02;102819.66;5042834;28;20032;-72
2022/04/17 03:10:46;;;;;;;7.07;6.38;;;;;;;7.83;44.34;102808.63;5042842;28;20107;-71
2022/04/17 03:13:12;;;;;;;9.65;6.88;;;;;;;7.83;43.69;102798.03;5028382;28;20067;-72
2022/04/17 03:15:38;;;;;;;9.15;7.03;;;;;;;7.94;43.06;102798.66;5038840;28;20030;-72
2022/04/17 03:18:05;;;;;;;7.53;6.20;;;;;;;8.02;42.89;102807.34;5034314;28;20018;-71
2022/04/17 03:20:31;;;;;;;8.05;6.72;;;;;;;7.85;43.54;102797.09;5048122;28;20033;-71
2022/04/17 03:22:58;;;;;;;9.57;6.40;;;;;;;7.86;42.44;102804.13;5060989;28;20021;-72
2022/04/17 03:25:26;;;;;;;7.72;5.95;;;;;;;7.87;43.08;102803.22;5066364;28;20036;-71
2022/04/17 03:27:52;;;;;;;11.43;6.18;;;;;;;7.86;42.82;102797.97;5044610;28;20033;-72
2022/04/17 03:30:18;;;;;;;10.93;6.78;;;;;;;7.73;43.24;102779.69;5058241;28;20041;-71
2022/04/17 03:32:45;;;;;;;6.85;5.65;;;;;;;7.77;43.20;102790.22;5043862;28;20052;-72
2022/04/17 03:35:11;;;;;;;7.25;6.35;;;;;;;7.71;42.98;102784.13;5055821;28;20488;-72
2022/04/17 03:37:36;;;;;;;8.75;6.50;;;;;;;7.68;43.90;102783.31;5030855;28;20031;-72
2022/04/17 03:40:03;;;;;;;7.40;5.97;;;;;;;7.71;44.32;102792.06;5046528;28;20025;-71
2022/04/17 03:42:28;;;;;;;7.40;6.38;;;;;;;7.61;45.26;102784.34;5051115;28;20136;-71
2022/04/17 03:44:55;;;;;;;10.55;5.97;;;;;;;7.58;45.01;102789.69;5029968;28;20045;-72
2022/04/17 03:47:21;;;;;;;8.15;6.28;;;;;;;7.39;45.56;102792.69;5032734;28;20029;-72
2022/04/17 03:49:47;;;;;;;11.00;6.95;;;;;;;7.45;45.36;102789.06;5034971;28;20511;-71
2022/04/17 03:52:12;;;;;;;7.22;6.30;;;;;;;7.32;46.21;102788.38;5046093;28;20132;-72
2022/04/17 03:54:40;;;;;;;8.15;6.28;;;;;;;7.35;46.00;102785.69;5052493;28;20488;-71
2022/04/17 03:57:06;;;;;;;7.30;6.57;;;;;;;7.28;46.69;102789.34;5036419;28;20032;-72
2022/04/17 03:59:33;;;;;;;7.45;6.72;;;;;;;7.19;46.76;102786.88;5032520;28;20376;-72
2022/04/17 04:02:01;;;;;;;7.35;6.65;;;;;;;7.17;46.75;102793.97;5037504;28;20021;-72
2022/04/17 04:04:26;;;;;;;7.50;6.70;;;;;;;7.07;47.50;102787.97;5045362;28;20025;-71
2022/04/17 04:06:52;;;;;;;12.15;6.95;;;;;;;6.96;48.34;102788.13;5046470;28;20744;-71
2022/04/17 04:09:19;;;;;;;7.75;6.72;;;;;;;6.70;48.67;102748.88;5035505;28;20119;-71
2022/04/17 04:11:45;;;;;;;7.68;6.88;;;;;;;6.87;48.20;102776.84;5032967;28;20711;-71
2022/04/17 04:14:11;;;;;;;9.32;7.65;;;;;;;6.72;48.67;102767.38;5033744;28;20025;-71
2022/04/17 04:16:39;;;;;;;12.15;7.30;;;;;;;6.78;48.63;102776.09;5057554;28;20094;-71
2022/04/17 04:19:05;;;;;;;10.05;7.30;;;;;;;6.62;48.96;102769.31;5035399;28;20040;-72
2022/04/17 04:21:30;;;;;;;8.32;6.35;;;;;;;6.59;47.76;102762.31;5056005;28;20033;-71
2022/04/17 04:23:58;;;;;;;10.68;6.82;;;;;;;6.73;47.99;102767.34;5047629;28;20084;-72
2022/04/17 04:26:24;;;;;;;7.70;6.68;;;;;;;6.67;47.91;102756.88;5049347;28;20033;-71
2022/04/17 04:28:49;;;;;;;7.25;6.43;;;;;;;6.71;48.16;102771.81;5034211;28;20038;-72
2022/04/17 04:31:15;;;;;;;7.78;6.97;;;;;;;6.78;48.45;102759.34;5032179;28;20037;-71
2022/04/17 04:33:42;;;;;;;10.40;7.00;;;;;;;6.80;47.77;102765.50;5050974;28;20044;-72
2022/04/17 04:36:11;;;;;;;9.63;6.90;;;;;;;6.71;48.10;102758.59;5031952;28;20021;-71
2022/04/17 04:38:38;;;;;;;9.57;6.88;;;;;;;6.78;49.01;102765.50;5032903;28;20021;-72
2022/04/17 04:41:04;;;;;;;11.55;7.05;;;;;;;6.70;48.61;102763.88;5050873;28;20048;-71
2022/04/17 04:43:30;;;;;;;9.50;7.05;;;;;;;6.70;49.17;102762.09;5050919;28;20026;-71
2022/04/17 04:46:08;;;;;;;9.77;6.85;;;;;;;6.67;49.09;102761.28;5040330;28;20028;-71
2022/04/17 04:51:21;;;;;;;9.98;7.65;;;;;;;6.54;49.27;102761.50;5038072;28;20134;-72
2022/04/17 04:53:49;;;;;;;8.50;6.93;;;;;;;6.64;49.81;102754.28;5034678;28;20083;-71
2022/04/17 04:56:16;;;;;;;11.52;7.70;;;;;;;6.58;49.44;102752.59;5036108;28;20396;-71
2022/04/17 04:58:42;;;;;;;8.90;7.30;;;;;;;6.56;50.06;102758.84;5034132;28;20024;-71
2022/04/17 05:01:08;;;;;;;12.35;7.90;;;;;;;6.54;49.80;102758.84;5038909;28;20096;-71
2022/04/17 05:03:34;;;;;;;8.77;7.70;;;;;;;6.48;50.20;102755.44;5033807;28;20025;-72
2022/04/17 05:05:59;;;;;;;9.00;7.50;;;;;;;6.47;50.74;102759.84;5037337;28;20067;-71
2022/04/17 05:08:27;;;;;;;10.43;7.30;;;;;;;6.29;51.64;102768.03;5037486;28;20037;-71
2022/04/17 05:10:55;;;;;;;10.15;7.70;;;;;;;6.33;51.45;102757.41;5052686;28;20048;-71
2022/04/17 05:13:21;;;;;;;8.57;7.68;;;;;;;6.34;51.74;102761.78;5032472;28;20061;-72
2022/04/17 05:15:47;;;;;;;8.45;7.35;;;;;;;6.37;51.58;102767.03;5046291;28;20063;-71
2022/04/17 05:18:15;;;;;;;10.38;7.18;;;;;;;6.25;52.45;102761.06;5033527;28;20082;-71
2022/04/17 05:20:42;;;;;;;11.38;8.52;;;;;;;6.45;50.18;102763.41;5031742;28;20032;-72
2022/04/17 05:23:19;;;;;;;14.65;7.85;;;;;;;6.52;48.99;102773.84;5032249;28;20412;-72
2022/04/17 05:25:50;;;;;;;9.82;8.50;;;;;;;6.47;50.30;102759.84;5047802;28;20128;-71
2022/04/17 05:28:16;;;;;;;9.77;8.25;;;;;;;6.62;49.53;102768.41;5032437;28;20021;-71
2022/04/17 05:30:42;;;;;;;10.05;8.55;;;;;;;6.71;48.30;102766.53;5049089;28;20024;-71
2022/04/17 05:33:08;;;;;;;10.52;8.80;;;;;;;6.81;48.76;102762.81;5047382;28;20029;-72
2022/04/17 05:35:36;;;;;;;10.90;8.15;;;;;;;6.96;48.56;102766.97;5060767;28;20033;-71
2022/04/17 05:38:03;;;;;;;10.52;8.35;;;;;;;7.00;47.99;102755.47;5030759;28;20029;-71
2022/04/17 05:40:35;;;;;;;11.57;8.80;;;;;;;7.17;48.04;102767.50;5033344;28;20048;-71
2022/04/17 05:43:02;;;;;;;9.55;7.32;;;;;;;7.13;47.80;102766.69;5032170;28;20017;-72
2022/04/17 05:45:30;;;;;;;9.95;8.13;;;;;;;7.14;47.79;102749.03;5036134;28;20024;-72
2022/04/17 05:47:59;;;;;;;10.00;7.55;;;;;;;7.31;48.21;102760.19;5031435;28;20069;-71
2022/04/17 05:50:27;;;;;;;11.77;8.18;;;;;;;7.37;47.71;102769.78;5032401;28;20072;-72
2022/04/17 05:52:55;;;;;;;9.70;7.65;;;;;;;7.42;47.74;102755.56;5046979;28;20350;-71
2022/04/17 05:55:21;;;;;;;12.02;7.13;;;;;;;7.61;47.48;102766.66;5033902;28;20029;-71
2022/04/17 05:57:47;;;;;;;10.40;7.65;;;;;;;7.69;47.01;102766.53;5036418;28;20018;-71
2022/04/17 06:00:14;;;;;;;7.80;7.03;;;;;;;7.69;46.55;102763.88;5067180;28;20035;-72
2022/04/17 06:02:40;;;;;;;11.07;6.97;;;;;;;7.86;46.20;102766.19;5067240;28;20036;-71
2022/04/17 06:05:06;;;;;;;10.05;7.03;;;;;;;7.86;46.09;102759.09;5067071;28;20033;-71
2022/04/17 06:07:32;;;;;;;8.73;7.07;;;;;;;8.03;45.94;102769.34;5034734;28;20033;-72
2022/04/17 06:10:02;;;;;;;8.00;7.20;;;;;;;8.06;46.30;102763.09;5031855;28;20017;-72
2022/04/17 06:12:28;;;;;;;;;;;;;;;8.25;45.61;102755.63;5034474;28;20079;-71
2022/04/17 06:14:54;;;;;;;7.80;6.72;;;;;;;8.19;45.55;102760.16;5046594;28;20322;-71
2022/04/17 06:17:20;;;;;;;11.07;7.05;;;;;;;8.31;45.77;102763.44;5020416;28;20480;-71
2022/04/17 06:19:45;;;;;;;9.68;7.10;;;;;;;8.37;45.37;102756.19;5030906;28;20025;-71
2022/04/17 06:22:11;;;;;;;7.35;6.38;;;;;;;8.51;45.45;102765.66;5048787;28;20033;-72
2022/04/17 06:24:39;;;;;;;8.55;6.65;;;;;;;8.63;44.81;102762.72;5045756;28;20052;-72
2022/04/17 06:27:05;;;;;;;10.80;6.60;;;;;;;8.79;44.43;102760.53;5035728;28;20087;-72
2022/04/17 06:29:31;;;;;;;6.60;5.50;;;;;;;8.77;43.80;102759.75;5029986;28;20029;-71
2022/04/17 06:31:59;;;;;;;8.02;5.72;;;;;;;8.84;43.56;102754.22;5029710;28;20025;-71
2022/04/17 06:34:24;;;;;;;6.45;5.85;;;;;;;8.85;43.31;102761.28;5034327;28;20472;-71
2022/04/17 06:36:51;;;;;;;8.73;5.55;;;;;;;8.85;43.15;102748.03;5031246;28;20036;-72
2022/04/17 06:39:16;;;;;;;7.45;5.20;;;;;;;8.92;42.61;102748.72;5030288;28;20056;-72
2022/04/17 06:41:44;;;;;;;9.43;5.85;;;;;;;9.00;42.89;102753.81;5029418;28;20047;-71
2022/04/17 06:44:11;;;;;;;7.05;5.45;;;;;;;9.15;42.91;102758.75;5030386;28;20562;-72
2022/04/17 06:46:37;;;;;;;6.43;5.45;;;;;;;9.32;42.43;102759.19;5036703;28;20086;-72
2022/04/17 06:49:04;;;;;;;10.07;5.90;;;;;;;9.55;41.95;102753.22;5036947;28;20068;-72
2022/04/17 06:51:30;;;;;;;7.25;5.80;;;;;;;9.64;41.29;102749.44;5039792;28;20025;-72
2022/04/17 06:53:56;;;;;;;6.32;5.68;;;;;;;9.73;40.83;102750.94;5037306;28;20488;-71
2022/04/17 06:56:21;;;;;;;10.93;5.72;;;;;;;9.74;41.52;102745.59;5031375;28;20060;-71
2022/04/17 06:58:50;;;;;;;6.78;5.53;;;;;;;9.84;40.83;102748.84;5037559;28;20044;-71
2022/04/17 07:01:18;;;;;;;6.10;5.32;;;;;;;9.93;41.31;102745.06;5031231;28;20017;-71
2022/04/17 07:03:49;;;;;;;7.90;5.35;;;;;;;9.94;40.45;102747.69;5046843;28;20036;-72
2022/04/17 07:06:15;;;;;;;6.53;5.25;;;;;;;10.01;39.97;102741.25;5032889;28;20045;-71
2022/04/17 07:08:40;;;;;;;6.28;5.38;;;;;;;10.07;39.92;102742.00;5038730;28;20030;-71
2022/04/17 07:11:06;;;;;;;5.90;5.30;;;;;;;10.18;40.08;102745.19;5045454;28;20040;-71
2022/04/17 07:13:31;;;;;;;6.43;5.07;;;;;;;10.31;39.97;102735.06;5046414;28;20034;-71
2022/04/17 07:15:57;;;;;;;6.68;5.47;;;;;;;10.53;39.79;102736.13;5043373;28;20057;-71
2022/04/17 07:18:23;;;;;;;7.90;5.28;;;;;;;10.63;39.36;102734.91;5053967;28;20397;-71
2022/04/17 07:20:48;;;;;;;6.53;5.70;;;;;;;10.80;39.24;102736.13;5033941;28;20056;-71
2022/04/17 07:23:14;;;;;;;7.22;4.93;;;;;;;10.95;38.57;102734.75;5044868;28;20033;-71
2022/04/17 07:25:40;;;;;;;7.20;4.88;;;;;;;11.03;38.41;102728.25;5054528;28;20033;-71
2022/04/17 07:28:12;;;;;;;6.60;5.13;;;;;;;11.05;37.94;102729.03;5037856;28;20017;-71
2022/04/17 07:30:40;;;;;;;7.15;5.13;;;;;;;11.27;38.15;102721.16;5030492;28;20021;-70
2022/04/17 07:33:05;;;;;;;7.15;5.13;;;;;;;11.31;38.12;102708.59;5044386;28;20040;-71
2022/04/17 07:35:31;;;;;;;8.95;5.28;;;;;;;11.45;37.85;102716.97;5039558;28;20025;-71
2022/04/17 07:37:59;;;;;;;7.97;5.47;;;;;;;11.59;37.63;102717.34;5030291;28;20029;-71
2022/04/17 07:40:27;;;;;;;6.93;5.10;;;;;;;11.68;37.11;102716.13;5032700;28;20101;-71
2022/04/17 07:42:58;;;;;;;7.45;5.13;;;;;;;11.68;36.98;102717.91;5036876;28;20052;-71
2022/04/17 07:45:24;;;;;;;5.65;4.85;;;;;;;11.80;36.35;102710.31;5053349;28;20025;-71
2022/04/17 07:47:53;;;;;;;5.65;4.72;;;;;;;11.86;37.38;102719.06;5039912;28;20111;-71
2022/04/17 07:50:23;;;;;;;5.73;5.10;;;;;;;11.95;36.52;102708.88;5049602;28;20029;-71
2022/04/17 07:52:49;;;;;;;5.55;4.97;;;;;;;12.13;36.54;102712.63;5037877;28;20031;-71
2022/04/17 07:55:16;;;;;;;6.13;5.05;;;;;;;12.24;36.82;102698.88;5032815;28;20033;-71
2022/04/17 08:01:20;;;;;;;5.63;5.13;;;;;;;12.47;36.37;102701.47;5050552;28;20467;-70
2022/04/17 08:03:20;;;;;;;5.18;4.50;;;;;;;12.68;36.01;102704.19;5041544;28;20128;-70
2022/04/17 08:05:47;;;;;;;5.90;4.40;;;;;;;12.71;35.70;102712.91;5033462;28;20113;-70
2022/04/17 08:08:12;;;;;;;7.88;4.97;;;;;;;12.79;34.98;102707.25;5034953;28;20094;-69
2022/04/17 08:10:41;;;;;;;5.20;4.70;;;;;;;12.71;35.27;102709.38;5034175;28;20033;-70
2022/04/17 08:13:06;;;;;;;6.95;4.90;;;;;;;12.82;35.38;102706.25;5054240;28;20028;-69
2022/04/17 08:15:33;;;;;;;7.65;4.63;;;;;;;12.88;35.72;102693.53;5032885;28;20039;-69
2022/04/17 08:17:58;;;;;;;5.65;4.90;;;;;;;13.07;34.85;102693.56;5034585;28;20018;-69
2022/04/17 08:20:26;;;;;;;5.55;5.05;;;;;;;13.35;34.68;102697.72;5048494;28;20029;-69
2022/04/17 08:22:54;;;;;;;5.63;5.05;;;;;;;13.45;34.78;102700.84;5032769;28;20393;-69
2022/04/17 08:25:22;;;;;;;6.22;4.82;;;;;;;13.73;34.26;102703.09;5033482;28;20091;-70
2022/04/17 08:27:52;;;;;;;6.00;4.97;;;;;;;13.92;34.30;102698.66;5038296;28;20057;-70
2022/04/17 08:30:25;;;;;;;7.35;4.95;;;;;;;13.93;33.99;102694.16;5035130;28;20021;-69
2022/04/17 08:32:51;;;;;;;4.88;4.47;;;;;;;14.04;33.03;102691.84;5041982;28;20455;-69
2022/04/17 08:35:17;;;;;;;5.82;5.05;;;;;;;14.05;32.95;102698.91;5033169;28;20052;-68
2022/04/17 08:37:43;;;;;;;5.45;4.13;;;;;;;14.31;33.57;102692.31;5039338;28;20024;-69
2022/04/17 08:40:10;;;;;;;7.57;4.97;;;;;;;14.37;33.04;102693.81;5033258;28;20033;-70
2022/04/17 08:42:36;;;;;;;6.03;4.90;;;;;;;14.64;33.37;102683.56;5035244;28;20017;-70
2022/04/17 08:45:03;;;;;;;4.90;4.40;;;;;;;14.81;32.10;102696.09;5037753;28;20040;-70
2022/04/17 08:47:32;;;;;;;4.90;4.50;;;;;;;14.67;31.90;102681.59;5081044;28;20029;-70
2022/04/17 08:49:57;;;;;;;6.22;5.38;;;;;;;14.88;32.44;102686.78;5045254;28;20100;-69
2022/04/17 08:52:23;;;;;;;5.07;4.53;;;;;;;14.92;31.79;102683.88;5033009;28;20603;-71
2022/04/17 08:54:50;;;;;;;5.70;4.30;;;;;;;15.02;31.28;102670.84;5031891;28;20308;-70
2022/04/17 08:57:16;;;;;;;8.07;4.72;;;;;;;15.09;30.93;102683.00;5035766;28;20029;-70
2022/04/17 08:59:42;;;;;;;8.07;4.40;;;;;;;15.20;30.93;102685.09;5015924;28;20528;-70
2022/04/17 09:02:10;;;;;;;6.25;4.45;;;;;;;15.29;30.54;102684.59;5042050;28;20021;-70
2022/04/17 09:04:42;;;;;;;8.38;4.50;;;;;;;15.36;30.42;102675.31;5066954;28;20032;-70
2022/04/17 09:07:10;;;;;;;6.25;4.50;;;;;;;15.36;30.33;102672.63;5044266;28;20404;-70
2022/04/17 09:09:52;;;;;;;5.07;4.28;;;;;;;15.58;30.97;102677.66;5031817;28;20056;-70
2022/04/17 09:12:18;;;;;;;4.82;4.40;;;;;;;15.63;29.54;102675.59;5058091;28;20029;-70
2022/04/17 09:14:44;;;;;;;5.30;4.10;;;;;;;15.78;29.95;102676.59;5032636;28;20036;-69
2022/04/17 09:17:10;;;;;;;9.18;4.70;;;;;;;15.57;29.84;102664.34;5040024;28;20666;-71
2022/04/17 09:19:36;;;;;;;5.72;4.38;;;;;;;15.64;29.76;102671.97;5034774;28;20018;-71
2022/04/17 09:22:02;;;;;;;5.68;4.00;;;;;;;15.71;29.25;102663.63;5032429;28;20045;-71
2022/04/17 09:24:28;;;;;;;4.28;3.88;;;;;;;15.65;29.85;102664.81;5048348;28;20033;-71
2022/04/17 09:26:54;;;;;;;4.30;3.90;;;;;;;15.89;28.47;102666.13;5029197;28;20477;-71
2022/04/17 09:29:28;;;;;;;4.22;3.72;;;;;;;16.00;29.12;102645.84;5061592;28;20033;-71
2022/04/17 09:32:03;;;;;;;4.25;3.78;;;;;;;16.13;28.77;102654.94;5033315;28;20028;-71
2022/04/17 09:34:52;;;;;;;5.53;4.10;;;;;;;16.18;28.67;102657.34;5030061;28;20428;-70
2022/04/17 09:37:19;;;;;;;5.82;4.25;;;;;;;16.24;28.31;102662.41;5045489;28;20022;-70
2022/04/17 09:39:48;;;;;;;6.13;4.60;;;;;;;16.13;28.47;102658.50;5032290;28;20457;-70
2022/04/17 09:42:23;;;;;;;5.18;4.57;;;;;;;16.21;28.95;102633.91;5030453;28;20510;-69
2022/04/17 09:44:54;;;;;;;4.32;3.92;;;;;;;16.38;28.28;102640.09;5032115;28;20061;-71
2022/04/17 09:47:25;;;;;;;6.07;4.20;;;;;;;16.42;28.78;102641.66;5046992;28;20033;-70
2022/04/17 09:50:02;;;;;;;6.78;4.47;;;;;;;16.71;28.61;102631.88;5042958;28;20035;-70
2022/04/17 09:52:35;;;;;;;6.55;4.07;;;;;;;16.82;28.64;102633.91;5035792;28;20025;-70
2022/04/17 09:55:03;;;;;;;5.10;3.58;;;;;;;16.96;28.88;102625.88;5051597;28;20095;-71
2022/04/17 09:57:34;;;;;;;4.57;4.07;;;;;;;17.10;28.73;102619.66;5033772;28;20057;-71
2022/04/17 10:00:09;;;;;;;6.78;4.20;;;;;;;17.37;29.29;102611.66;5043465;28;20090;-71
2022/04/17 10:02:37;;;;;;;5.20;3.90;;;;;;;17.41;27.69;102608.69;5033712;28;20032;-71
2022/04/17 10:05:03;;;;;;;4.60;3.70;;;;;;;17.47;26.79;102597.53;5038089;28;20029;-71
2022/04/17 10:07:30;;;;;;;4.38;3.38;;;;;;;17.45;26.19;102607.53;5055962;28;20045;-71
2022/04/17 10:09:55;;;;;;;3.53;3.22;;;;;;;17.49;26.93;102594.72;5032069;28;20033;-70
2022/04/17 10:12:24;;;;;;;4.00;3.33;;;;;;;17.46;27.21;102590.41;5044871;28;20037;-70
2022/04/17 10:14:53;;;;;;;3.88;3.30;;;;;;;17.45;26.28;102582.44;5029351;28;20060;-70
2022/04/17 10:17:20;;;;;;;4.32;3.25;;;;;;;17.52;26.83;102582.91;5044444;28;20025;-70
2022/04/17 10:19:50;;;;;;;5.65;3.28;;;;;;;17.61;27.38;102576.94;5040693;28;20040;-70
2022/04/17 10:22:23;;;;;;;5.15;3.33;;;;;;;17.74;27.78;102580.56;5053546;28;20025;-70
2022/04/17 10:24:52;;;;;;;4.80;3.28;;;;;;;17.93;27.37;102575.69;5045875;28;20469;-70
2022/04/17 10:27:48;;;;;;;4.22;3.00;;;;;;;18.13;27.77;102566.28;5039562;28;20045;-71
2022/04/17 10:30:19;;;;;;;4.18;3.03;;;;;;;18.23;26.96;102563.81;5031928;28;20041;-70
2022/04/17 10:33:03;;;;;;;4.70;2.88;;;;;;;18.55;26.73;102555.38;5045406;28;20057;-70
2022/04/17 10:35:56;;;;;;;4.03;3.17;;;;;;;18.51;25.87;102557.41;5029740;28;20032;-70
2022/04/17 10:38:26;;;;;;;4.65;2.60;;;;;;;18.55;25.63;102548.13;5030907;28;20541;-69
2022/04/17 10:41:01;;;;;;;3.10;2.70;;;;;;;19.11;24.98;102542.41;5030060;28;20066;-69
2022/04/17 10:43:42;;;;;;;3.88;3.25;;;;;;;19.22;26.34;102538.94;5033279;28;20366;-68
2022/04/17 10:46:09;;;;;;;6.03;3.13;;;;;;;19.05;24.68;102530.25;5028599;28;20043;-69
2022/04/17 10:48:47;;;;;;;6.50;3.15;;;;;;;19.33;25.29;102532.78;5032670;28;20542;-70
2022/04/17 10:51:28;;;;;;;4.70;2.97;;;;;;;19.46;25.01;102533.59;5033701;28;20123;-69
2022/04/17 10:54:05;;;;;;;2.83;2.63;;;;;;;19.81;24.63;102522.03;5027413;28;20025;-70
2022/04/17 10:56:36;;;;;;;4.13;3.30;;;;;;;19.80;23.61;102518.47;5032804;28;20037;-70
2022/04/17 10:59:14;;;;;;;4.00;2.83;;;;;;;19.65;23.86;102515.09;5028891;28;20029;-70
2022/04/17 11:01:42;;;;;;;4.03;2.42;;;;;;;19.87;25.51;102511.63;5048852;28;20473;-70
2022/04/17 11:04:17;;;;;;;4.63;2.37;;;;;;;20.06;24.35;102513.78;5034723;28;20030;-71
2022/04/17 11:06:43;;;;;;;4.28;2.88;;;;;;;19.99;22.92;102514.38;5032748;28;20410;-71
2022/04/17 11:09:16;;;;;;;4.45;2.67;;;;;;;20.26;23.51;102505.97;5029116;28;20401;-69
2022/04/17 11:11:46;;;;;;;2.75;2.40;;;;;;;20.73;23.54;102501.38;5029389;28;20473;-70
2022/04/17 11:14:20;;;;;;;3.30;2.40;;;;;;;20.87;22.80;102499.31;5030192;28;20112;-70
2022/04/17 11:16:56;;;;;;;5.38;2.10;;;;;;;20.90;21.82;102506.31;5035832;28;20025;-70
2022/04/17 11:19:28;;;;;;;3.38;2.00;;;;;;;20.72;21.54;102483.47;5054472;28;20030;-69
2022/04/17 11:21:58;;;;;;;4.53;2.00;;;;;;;21.04;21.92;102491.69;5052075;28;20182;-69
2022/04/17 11:24:29;;;;;;;4.43;2.17;;;;;;;21.41;21.02;102488.66;5048388;28;20032;-69
2022/04/17 11:26:54;;;;;;;2.85;2.13;;;;;;;21.63;20.28;102480.47;5034893;28;20029;-69
2022/04/17 11:29:37;;;;;;;3.95;1.90;;;;;;;22.00;20.65;102477.34;5034569;28;20115;-69
2022/04/17 11:32:18;;;;;;;5.47;2.10;;;;;;;22.22;19.42;102468.25;5035647;28;20021;-69
2022/04/17 11:34:53;;;;;;;1.92;1.80;;;;;;;22.28;18.22;102475.00;5033702;28;20431;-70
2022/04/17 11:37:19;;;;;;;2.40;1.80;;;;;;;22.41;17.75;102465.66;5041359;28;20036;-69
2022/04/17 11:39:45;;;;;;;2.55;2.10;;;;;;;22.82;17.71;102469.25;5065272;28;20052;-69
2022/04/17 11:42:13;;;;;;;3.17;1.55;;;;;;;23.31;17.74;102458.56;5054508;28;20021;-70